Allerton, New York
Current Conditions -  °F | °C
As of 11:17 AM on Monday 26 Jan 2015 (Local Time) from KLGA Reporting Station
Light Snow Light Snow  
Wind Chill: -15°   Ceiling: 1300
Heat Index: -6°   Visibility: 3mi
Dew Point: -8°   Wind: 21mph
Humidity: 86%   Direction: 50°NE
Pressure: 29.99"   Gusts: 31mph
Location:  40.8778°N, 73.8721°W
Report Text: KLGA 261617Z 05018G27KT 3SM -SN BKN013 OVC032 M06/M08 A2999 RMK AO2 PK WND 04028/1558 P0000
Loading
Personal Weather Stations






























Interactive Weather Map New forecast layout! Learn more

10-Day Weather Forecast

Advertisements
Track Severe Weather on mobile